Terminal Aerodrome Forecast
Issued by NWS

Home | Current Version | Previous Version | Text Only | Print | Product List | Glossary On
Versions: 1 2 3 4 5 6 7 8 9 10 11 12 13 14
571
FTUS43 KEAX 151500 AAA
TAFMKC
TAF AMD
KMKC 151500Z 1515/1612 33013KT P6SM BKN025
     FM151700 33010G20KT P6SM SKC
     FM160200 VRB03KT P6SM SKC=

USA.gov is the U.S. government's official web portal to all federal, state and local government web resources and services.